sensor_id;sensor_type;location;lat;lon;timestamp;P1;durP1;ratioP1;P2;durP2;ratioP2
69565;SDS011;56777;55.930;37.524;2024-02-26T00:01:48;8.80;;;3.15;;
69565;SDS011;56777;55.930;37.524;2024-02-26T00:04:14;5.30;;;2.65;;
69565;SDS011;56777;55.930;37.524;2024-02-26T00:06:39;9.38;;;3.38;;
69565;SDS011;56777;55.930;37.524;2024-02-26T00:09:08;6.28;;;3.10;;
69565;SDS011;56777;55.930;37.524;2024-02-26T00:11:37;9.50;;;2.88;;
69565;SDS011;56777;55.930;37.524;2024-02-26T00:14:03;6.22;;;2.53;;
69565;SDS011;56777;55.930;37.524;2024-02-26T00:16:29;6.43;;;2.38;;
69565;SDS011;56777;55.930;37.524;2024-02-26T00:18:55;6.85;;;2.92;;
69565;SDS011;56777;55.930;37.524;2024-02-26T00:21:20;9.05;;;3.20;;
69565;SDS011;56777;55.930;37.524;2024-02-26T00:23:46;11.32;;;3.22;;
69565;SDS011;56777;55.930;37.524;2024-02-26T00:26:12;7.43;;;3.38;;
69565;SDS011;56777;55.930;37.524;2024-02-26T00:28:37;13.07;;;2.83;;
69565;SDS011;56777;55.930;37.524;2024-02-26T00:31:03;9.50;;;2.65;;
69565;SDS011;56777;55.930;37.524;2024-02-26T00:33:29;9.20;;;3.47;;
69565;SDS011;56777;55.930;37.524;2024-02-26T00:35:54;9.82;;;3.28;;
69565;SDS011;56777;55.930;37.524;2024-02-26T00:38:20;9.70;;;3.30;;
69565;SDS011;56777;55.930;37.524;2024-02-26T00:40:45;7.45;;;3.22;;
69565;SDS011;56777;55.930;37.524;2024-02-26T00:43:11;9.68;;;3.30;;
69565;SDS011;56777;55.930;37.524;2024-02-26T00:45:37;8.50;;;2.63;;
69565;SDS011;56777;55.930;37.524;2024-02-26T00:48:03;8.30;;;3.35;;
69565;SDS011;56777;55.930;37.524;2024-02-26T00:50:32;10.35;;;3.45;;
69565;SDS011;56777;55.930;37.524;2024-02-26T00:52:58;7.20;;;3.53;;
69565;SDS011;56777;55.930;37.524;2024-02-26T00:55:24;9.32;;;3.75;;
69565;SDS011;56777;55.930;37.524;2024-02-26T00:57:50;10.75;;;3.92;;
69565;SDS011;56777;55.930;37.524;2024-02-26T01:00:15;8.57;;;3.35;;
69565;SDS011;56777;55.930;37.524;2024-02-26T01:02:41;5.18;;;2.28;;
69565;SDS011;56777;55.930;37.524;2024-02-26T01:05:07;8.65;;;3.72;;
69565;SDS011;56777;55.930;37.524;2024-02-26T01:07:36;7.72;;;2.75;;
69565;SDS011;56777;55.930;37.524;2024-02-26T01:10:02;7.65;;;2.83;;
69565;SDS011;56777;55.930;37.524;2024-02-26T01:12:28;9.93;;;3.90;;
69565;SDS011;56777;55.930;37.524;2024-02-26T01:14:53;6.43;;;3.08;;
69565;SDS011;56777;55.930;37.524;2024-02-26T01:17:19;9.93;;;3.00;;
69565;SDS011;56777;55.930;37.524;2024-02-26T01:19:44;8.32;;;3.15;;
69565;SDS011;56777;55.930;37.524;2024-02-26T01:22:10;8.50;;;3.05;;
69565;SDS011;56777;55.930;37.524;2024-02-26T01:24:35;11.88;;;3.35;;
69565;SDS011;56777;55.930;37.524;2024-02-26T01:27:01;8.50;;;3.90;;
69565;SDS011;56777;55.930;37.524;2024-02-26T01:29:26;5.60;;;2.67;;
69565;SDS011;56777;55.930;37.524;2024-02-26T01:31:52;7.82;;;3.47;;
69565;SDS011;56777;55.930;37.524;2024-02-26T01:34:17;8.00;;;3.90;;
69565;SDS011;56777;55.930;37.524;2024-02-26T01:36:43;8.80;;;2.80;;
69565;SDS011;56777;55.930;37.524;2024-02-26T01:39:09;6.22;;;2.33;;
69565;SDS011;56777;55.930;37.524;2024-02-26T01:41:38;9.00;;;3.13;;
69565;SDS011;56777;55.930;37.524;2024-02-26T01:44:04;11.27;;;2.97;;
69565;SDS011;56777;55.930;37.524;2024-02-26T01:46:30;7.28;;;2.70;;
69565;SDS011;56777;55.930;37.524;2024-02-26T01:48:58;7.95;;;3.50;;
69565;SDS011;56777;55.930;37.524;2024-02-26T01:51:24;8.43;;;3.28;;
69565;SDS011;56777;55.930;37.524;2024-02-26T01:53:50;5.57;;;2.47;;
69565;SDS011;56777;55.930;37.524;2024-02-26T01:56:16;6.65;;;2.55;;
69565;SDS011;56777;55.930;37.524;2024-02-26T01:58:44;8.20;;;3.38;;
69565;SDS011;56777;55.930;37.524;2024-02-26T02:01:10;6.18;;;2.75;;
69565;SDS011;56777;55.930;37.524;2024-02-26T02:03:37;6.88;;;2.72;;
69565;SDS011;56777;55.930;37.524;2024-02-26T02:06:03;7.60;;;2.08;;
69565;SDS011;56777;55.930;37.524;2024-02-26T02:08:29;7.53;;;2.97;;
69565;SDS011;56777;55.930;37.524;2024-02-26T02:10:55;7.43;;;3.17;;
69565;SDS011;56777;55.930;37.524;2024-02-26T02:13:21;7.32;;;2.65;;
69565;SDS011;56777;55.930;37.524;2024-02-26T02:15:47;7.63;;;3.45;;
69565;SDS011;56777;55.930;37.524;2024-02-26T02:18:12;8.00;;;3.63;;
69565;SDS011;56777;55.930;37.524;2024-02-26T02:20:38;7.53;;;2.75;;
69565;SDS011;56777;55.930;37.524;2024-02-26T02:23:03;10.48;;;3.42;;
69565;SDS011;56777;55.930;37.524;2024-02-26T02:25:29;8.27;;;2.88;;
69565;SDS011;56777;55.930;37.524;2024-02-26T02:27:55;7.97;;;3.55;;
69565;SDS011;56777;55.930;37.524;2024-02-26T02:30:23;9.75;;;3.42;;
69565;SDS011;56777;55.930;37.524;2024-02-26T02:32:51;12.95;;;2.67;;
69565;SDS011;56777;55.930;37.524;2024-02-26T02:35:18;8.45;;;3.97;;
69565;SDS011;56777;55.930;37.524;2024-02-26T02:37:43;10.07;;;3.13;;
69565;SDS011;56777;55.930;37.524;2024-02-26T02:40:11;6.13;;;3.08;;
69565;SDS011;56777;55.930;37.524;2024-02-26T02:42:37;8.80;;;3.08;;
69565;SDS011;56777;55.930;37.524;2024-02-26T02:45:03;4.55;;;1.45;;
69565;SDS011;56777;55.930;37.524;2024-02-26T02:47:28;9.15;;;3.38;;
69565;SDS011;56777;55.930;37.524;2024-02-26T02:49:54;6.30;;;2.53;;
69565;SDS011;56777;55.930;37.524;2024-02-26T02:52:19;7.93;;;2.60;;
69565;SDS011;56777;55.930;37.524;2024-02-26T02:54:45;9.27;;;3.03;;
69565;SDS011;56777;55.930;37.524;2024-02-26T02:57:12;7.63;;;3.10;;
69565;SDS011;56777;55.930;37.524;2024-02-26T02:59:37;7.40;;;2.58;;
69565;SDS011;56777;55.930;37.524;2024-02-26T03:02:03;6.97;;;2.38;;
69565;SDS011;56777;55.930;37.524;2024-02-26T03:04:29;9.48;;;2.95;;
69565;SDS011;56777;55.930;37.524;2024-02-26T03:06:55;8.57;;;2.60;;
69565;SDS011;56777;55.930;37.524;2024-02-26T03:09:20;6.35;;;2.35;;
69565;SDS011;56777;55.930;37.524;2024-02-26T03:11:46;8.38;;;3.53;;
69565;SDS011;56777;55.930;37.524;2024-02-26T03:14:12;8.13;;;3.25;;
69565;SDS011;56777;55.930;37.524;2024-02-26T03:16:37;7.43;;;3.28;;
69565;SDS011;56777;55.930;37.524;2024-02-26T03:19:03;5.75;;;2.92;;
69565;SDS011;56777;55.930;37.524;2024-02-26T03:21:28;6.82;;;2.72;;
69565;SDS011;56777;55.930;37.524;2024-02-26T03:23:54;9.60;;;2.60;;
69565;SDS011;56777;55.930;37.524;2024-02-26T03:26:20;6.93;;;3.20;;
69565;SDS011;56777;55.930;37.524;2024-02-26T03:28:46;9.13;;;3.28;;
69565;SDS011;56777;55.930;37.524;2024-02-26T03:31:12;9.48;;;3.08;;
69565;SDS011;56777;55.930;37.524;2024-02-26T03:33:38;6.75;;;3.20;;
69565;SDS011;56777;55.930;37.524;2024-02-26T03:36:03;8.63;;;2.95;;
69565;SDS011;56777;55.930;37.524;2024-02-26T03:38:29;8.10;;;3.15;;
69565;SDS011;56777;55.930;37.524;2024-02-26T03:40:55;8.27;;;3.05;;
69565;SDS011;56777;55.930;37.524;2024-02-26T03:43:21;8.45;;;3.42;;
69565;SDS011;56777;55.930;37.524;2024-02-26T03:45:46;7.93;;;2.80;;
69565;SDS011;56777;55.930;37.524;2024-02-26T03:48:12;10.07;;;3.40;;
69565;SDS011;56777;55.930;37.524;2024-02-26T03:50:38;6.47;;;2.60;;
69565;SDS011;56777;55.930;37.524;2024-02-26T03:53:03;9.68;;;3.25;;
69565;SDS011;56777;55.930;37.524;2024-02-26T03:55:29;7.90;;;3.45;;
69565;SDS011;56777;55.930;37.524;2024-02-26T03:57:54;12.68;;;3.83;;
69565;SDS011;56777;55.930;37.524;2024-02-26T04:00:20;8.75;;;4.22;;
69565;SDS011;56777;55.930;37.524;2024-02-26T04:02:48;11.68;;;3.80;;
69565;SDS011;56777;55.930;37.524;2024-02-26T04:05:14;10.15;;;3.45;;
69565;SDS011;56777;55.930;37.524;2024-02-26T04:07:40;8.77;;;3.85;;
69565;SDS011;56777;55.930;37.524;2024-02-26T04:10:10;9.85;;;3.53;;
69565;SDS011;56777;55.930;37.524;2024-02-26T04:12:38;6.88;;;2.92;;
69565;SDS011;56777;55.930;37.524;2024-02-26T04:15:07;9.57;;;3.88;;
69565;SDS011;56777;55.930;37.524;2024-02-26T04:17:34;11.60;;;5.25;;
69565;SDS011;56777;55.930;37.524;2024-02-26T04:20:01;8.95;;;4.45;;
69565;SDS011;56777;55.930;37.524;2024-02-26T04:22:27;9.60;;;3.65;;
69565;SDS011;56777;55.930;37.524;2024-02-26T04:24:52;6.97;;;3.33;;
69565;SDS011;56777;55.930;37.524;2024-02-26T04:27:18;8.43;;;4.32;;
69565;SDS011;56777;55.930;37.524;2024-02-26T04:29:43;6.88;;;2.80;;
69565;SDS011;56777;55.930;37.524;2024-02-26T04:32:09;8.55;;;4.30;;
69565;SDS011;56777;55.930;37.524;2024-02-26T04:34:35;12.90;;;4.38;;
69565;SDS011;56777;55.930;37.524;2024-02-26T04:37:00;9.52;;;3.80;;
69565;SDS011;56777;55.930;37.524;2024-02-26T04:39:26;8.60;;;3.88;;
69565;SDS011;56777;55.930;37.524;2024-02-26T04:41:51;13.95;;;5.30;;
69565;SDS011;56777;55.930;37.524;2024-02-26T04:44:17;6.95;;;2.63;;
69565;SDS011;56777;55.930;37.524;2024-02-26T04:46:42;12.45;;;4.57;;
69565;SDS011;56777;55.930;37.524;2024-02-26T04:49:08;11.98;;;3.15;;
69565;SDS011;56777;55.930;37.524;2024-02-26T04:51:34;5.43;;;3.33;;
69565;SDS011;56777;55.930;37.524;2024-02-26T04:54:00;8.25;;;3.33;;
69565;SDS011;56777;55.930;37.524;2024-02-26T04:56:25;8.35;;;3.20;;
69565;SDS011;56777;55.930;37.524;2024-02-26T04:58:51;5.97;;;2.78;;
69565;SDS011;56777;55.930;37.524;2024-02-26T05:01:16;9.60;;;3.45;;
69565;SDS011;56777;55.930;37.524;2024-02-26T05:03:42;6.55;;;2.72;;
69565;SDS011;56777;55.930;37.524;2024-02-26T05:06:08;8.63;;;2.83;;
69565;SDS011;56777;55.930;37.524;2024-02-26T05:08:34;12.05;;;3.80;;
69565;SDS011;56777;55.930;37.524;2024-02-26T05:11:01;11.70;;;2.85;;
69565;SDS011;56777;55.930;37.524;2024-02-26T05:13:30;8.73;;;2.83;;
69565;SDS011;56777;55.930;37.524;2024-02-26T05:15:56;7.85;;;4.00;;
69565;SDS011;56777;55.930;37.524;2024-02-26T05:18:21;8.43;;;3.55;;
69565;SDS011;56777;55.930;37.524;2024-02-26T05:20:47;8.77;;;2.88;;
69565;SDS011;56777;55.930;37.524;2024-02-26T05:23:13;7.88;;;3.17;;
69565;SDS011;56777;55.930;37.524;2024-02-26T05:25:38;10.48;;;3.08;;
69565;SDS011;56777;55.930;37.524;2024-02-26T05:28:04;9.52;;;3.10;;
69565;SDS011;56777;55.930;37.524;2024-02-26T05:30:30;7.75;;;2.78;;
69565;SDS011;56777;55.930;37.524;2024-02-26T05:32:55;8.13;;;2.83;;
69565;SDS011;56777;55.930;37.524;2024-02-26T05:35:21;8.68;;;2.78;;
69565;SDS011;56777;55.930;37.524;2024-02-26T05:37:46;8.85;;;3.25;;
69565;SDS011;56777;55.930;37.524;2024-02-26T05:40:12;7.55;;;2.72;;
69565;SDS011;56777;55.930;37.524;2024-02-26T05:42:38;6.68;;;2.95;;
69565;SDS011;56777;55.930;37.524;2024-02-26T05:45:03;4.35;;;2.10;;
69565;SDS011;56777;55.930;37.524;2024-02-26T05:47:34;9.98;;;3.10;;
69565;SDS011;56777;55.930;37.524;2024-02-26T05:50:01;5.88;;;2.15;;
69565;SDS011;56777;55.930;37.524;2024-02-26T05:52:27;6.80;;;2.30;;
69565;SDS011;56777;55.930;37.524;2024-02-26T05:54:54;9.82;;;2.38;;
69565;SDS011;56777;55.930;37.524;2024-02-26T05:57:20;5.75;;;2.17;;
69565;SDS011;56777;55.930;37.524;2024-02-26T05:59:45;8.35;;;2.47;;
69565;SDS011;56777;55.930;37.524;2024-02-26T06:02:11;9.60;;;3.42;;
69565;SDS011;56777;55.930;37.524;2024-02-26T06:04:36;7.57;;;2.70;;
69565;SDS011;56777;55.930;37.524;2024-02-26T06:07:02;8.23;;;2.28;;
69565;SDS011;56777;55.930;37.524;2024-02-26T06:09:27;6.43;;;2.45;;
69565;SDS011;56777;55.930;37.524;2024-02-26T06:11:53;6.38;;;2.33;;
69565;SDS011;56777;55.930;37.524;2024-02-26T06:14:19;6.25;;;2.35;;
69565;SDS011;56777;55.930;37.524;2024-02-26T06:16:45;6.80;;;2.25;;
69565;SDS011;56777;55.930;37.524;2024-02-26T06:19:11;5.57;;;2.13;;
69565;SDS011;56777;55.930;37.524;2024-02-26T06:21:36;10.48;;;2.80;;
69565;SDS011;56777;55.930;37.524;2024-02-26T06:24:02;6.43;;;2.42;;
69565;SDS011;56777;55.930;37.524;2024-02-26T06:26:28;7.28;;;2.50;;
69565;SDS011;56777;55.930;37.524;2024-02-26T06:28:54;8.18;;;2.47;;
69565;SDS011;56777;55.930;37.524;2024-02-26T06:31:21;11.65;;;3.00;;
69565;SDS011;56777;55.930;37.524;2024-02-26T06:33:48;7.97;;;2.72;;
69565;SDS011;56777;55.930;37.524;2024-02-26T06:36:15;6.43;;;2.42;;
69565;SDS011;56777;55.930;37.524;2024-02-26T06:38:42;5.28;;;2.13;;
69565;SDS011;56777;55.930;37.524;2024-02-26T06:41:07;7.22;;;2.38;;
69565;SDS011;56777;55.930;37.524;2024-02-26T06:43:34;8.82;;;2.35;;
69565;SDS011;56777;55.930;37.524;2024-02-26T06:45:59;9.13;;;2.30;;
69565;SDS011;56777;55.930;37.524;2024-02-26T06:48:25;7.63;;;2.70;;
69565;SDS011;56777;55.930;37.524;2024-02-26T06:50:50;8.32;;;2.53;;
69565;SDS011;56777;55.930;37.524;2024-02-26T06:53:16;6.28;;;2.22;;
69565;SDS011;56777;55.930;37.524;2024-02-26T06:55:42;6.32;;;2.40;;
69565;SDS011;56777;55.930;37.524;2024-02-26T06:58:08;6.50;;;2.20;;
69565;SDS011;56777;55.930;37.524;2024-02-26T07:00:34;6.40;;;2.45;;
69565;SDS011;56777;55.930;37.524;2024-02-26T07:03:00;7.05;;;2.13;;
69565;SDS011;56777;55.930;37.524;2024-02-26T07:05:25;7.13;;;2.30;;
69565;SDS011;56777;55.930;37.524;2024-02-26T07:07:51;6.22;;;2.45;;
69565;SDS011;56777;55.930;37.524;2024-02-26T07:10:17;7.03;;;2.17;;
69565;SDS011;56777;55.930;37.524;2024-02-26T07:12:43;6.18;;;2.22;;
69565;SDS011;56777;55.930;37.524;2024-02-26T07:15:09;9.32;;;2.90;;
69565;SDS011;56777;55.930;37.524;2024-02-26T07:17:35;4.68;;;2.15;;
69565;SDS011;56777;55.930;37.524;2024-02-26T07:20:01;6.93;;;2.45;;
69565;SDS011;56777;55.930;37.524;2024-02-26T07:22:29;8.60;;;2.13;;
69565;SDS011;56777;55.930;37.524;2024-02-26T07:24:55;5.38;;;2.25;;
69565;SDS011;56777;55.930;37.524;2024-02-26T07:27:20;10.35;;;2.15;;
69565;SDS011;56777;55.930;37.524;2024-02-26T07:29:46;6.18;;;1.92;;
69565;SDS011;56777;55.930;37.524;2024-02-26T07:32:12;8.38;;;2.00;;
69565;SDS011;56777;55.930;37.524;2024-02-26T07:34:37;5.72;;;2.40;;
69565;SDS011;56777;55.930;37.524;2024-02-26T07:37:06;5.75;;;2.20;;
69565;SDS011;56777;55.930;37.524;2024-02-26T07:39:34;7.68;;;1.98;;
69565;SDS011;56777;55.930;37.524;2024-02-26T07:42:00;6.50;;;2.40;;
69565;SDS011;56777;55.930;37.524;2024-02-26T07:44:25;4.82;;;1.60;;
69565;SDS011;56777;55.930;37.524;2024-02-26T07:46:51;5.53;;;2.40;;
69565;SDS011;56777;55.930;37.524;2024-02-26T07:49:16;5.53;;;2.13;;
69565;SDS011;56777;55.930;37.524;2024-02-26T07:51:42;8.88;;;2.60;;
69565;SDS011;56777;55.930;37.524;2024-02-26T07:54:07;7.95;;;2.92;;
69565;SDS011;56777;55.930;37.524;2024-02-26T07:56:33;3.50;;;1.20;;
69565;SDS011;56777;55.930;37.524;2024-02-26T07:58:58;5.88;;;1.98;;
69565;SDS011;56777;55.930;37.524;2024-02-26T08:01:24;5.68;;;1.88;;
69565;SDS011;56777;55.930;37.524;2024-02-26T08:03:52;8.25;;;1.90;;
69565;SDS011;56777;55.930;37.524;2024-02-26T08:06:20;5.88;;;2.20;;
69565;SDS011;56777;55.930;37.524;2024-02-26T08:08:46;6.15;;;2.13;;
69565;SDS011;56777;55.930;37.524;2024-02-26T08:11:14;6.47;;;2.28;;
69565;SDS011;56777;55.930;37.524;2024-02-26T08:13:40;6.18;;;2.35;;
69565;SDS011;56777;55.930;37.524;2024-02-26T08:16:06;7.85;;;1.88;;
69565;SDS011;56777;55.930;37.524;2024-02-26T08:18:31;6.00;;;1.80;;
69565;SDS011;56777;55.930;37.524;2024-02-26T08:20:57;9.27;;;3.22;;
69565;SDS011;56777;55.930;37.524;2024-02-26T08:23:22;7.95;;;2.60;;
69565;SDS011;56777;55.930;37.524;2024-02-26T08:25:48;6.18;;;2.10;;
69565;SDS011;56777;55.930;37.524;2024-02-26T08:28:14;6.57;;;2.35;;
69565;SDS011;56777;55.930;37.524;2024-02-26T08:30:42;8.57;;;2.08;;
69565;SDS011;56777;55.930;37.524;2024-02-26T08:33:08;4.85;;;2.00;;
69565;SDS011;56777;55.930;37.524;2024-02-26T08:35:34;4.15;;;1.63;;
69565;SDS011;56777;55.930;37.524;2024-02-26T08:37:59;5.65;;;1.67;;
69565;SDS011;56777;55.930;37.524;2024-02-26T08:40:25;7.38;;;2.03;;
69565;SDS011;56777;55.930;37.524;2024-02-26T08:42:51;8.10;;;1.95;;
69565;SDS011;56777;55.930;37.524;2024-02-26T08:45:16;6.20;;;2.00;;
69565;SDS011;56777;55.930;37.524;2024-02-26T08:47:44;5.68;;;1.77;;
69565;SDS011;56777;55.930;37.524;2024-02-26T08:50:10;8.52;;;2.67;;
69565;SDS011;56777;55.930;37.524;2024-02-26T08:52:37;5.65;;;2.28;;
69565;SDS011;56777;55.930;37.524;2024-02-26T08:55:03;6.20;;;2.15;;
69565;SDS011;56777;55.930;37.524;2024-02-26T08:57:30;7.82;;;2.30;;
69565;SDS011;56777;55.930;37.524;2024-02-26T08:59:59;9.82;;;2.70;;
69565;SDS011;56777;55.930;37.524;2024-02-26T09:02:25;8.32;;;2.45;;
69565;SDS011;56777;55.930;37.524;2024-02-26T09:04:51;12.23;;;2.55;;
69565;SDS011;56777;55.930;37.524;2024-02-26T09:07:19;6.85;;;2.38;;
69565;SDS011;56777;55.930;37.524;2024-02-26T09:09:45;6.18;;;2.58;;
69565;SDS011;56777;55.930;37.524;2024-02-26T09:12:10;9.15;;;2.42;;
69565;SDS011;56777;55.930;37.524;2024-02-26T09:14:36;8.73;;;2.30;;
69565;SDS011;56777;55.930;37.524;2024-02-26T09:17:01;11.32;;;2.33;;
69565;SDS011;56777;55.930;37.524;2024-02-26T09:19:27;9.63;;;2.47;;
69565;SDS011;56777;55.930;37.524;2024-02-26T09:21:53;10.00;;;3.15;;
69565;SDS011;56777;55.930;37.524;2024-02-26T09:24:22;8.90;;;2.85;;
69565;SDS011;56777;55.930;37.524;2024-02-26T09:26:48;9.15;;;2.75;;
69565;SDS011;56777;55.930;37.524;2024-02-26T09:29:14;6.82;;;2.58;;
69565;SDS011;56777;55.930;37.524;2024-02-26T09:31:39;7.57;;;2.35;;
69565;SDS011;56777;55.930;37.524;2024-02-26T09:34:06;7.22;;;2.20;;
69565;SDS011;56777;55.930;37.524;2024-02-26T09:36:33;10.57;;;2.78;;
69565;SDS011;56777;55.930;37.524;2024-02-26T09:38:58;9.70;;;2.88;;
69565;SDS011;56777;55.930;37.524;2024-02-26T09:41:24;5.10;;;1.95;;
69565;SDS011;56777;55.930;37.524;2024-02-26T09:43:55;5.38;;;1.88;;
69565;SDS011;56777;55.930;37.524;2024-02-26T09:46:22;7.32;;;2.10;;
69565;SDS011;56777;55.930;37.524;2024-02-26T09:48:51;6.15;;;2.13;;
69565;SDS011;56777;55.930;37.524;2024-02-26T09:51:16;6.28;;;2.15;;
69565;SDS011;56777;55.930;37.524;2024-02-26T09:53:43;7.00;;;2.22;;
69565;SDS011;56777;55.930;37.524;2024-02-26T09:56:12;5.72;;;1.73;;
69565;SDS011;56777;55.930;37.524;2024-02-26T09:58:38;7.00;;;2.55;;
69565;SDS011;56777;55.930;37.524;2024-02-26T10:01:07;5.07;;;2.10;;
69565;SDS011;56777;55.930;37.524;2024-02-26T10:03:38;5.95;;;2.40;;
69565;SDS011;56777;55.930;37.524;2024-02-26T10:06:07;9.95;;;2.30;;
69565;SDS011;56777;55.930;37.524;2024-02-26T10:08:33;8.88;;;2.30;;
69565;SDS011;56777;55.930;37.524;2024-02-26T10:11:00;6.03;;;2.08;;
69565;SDS011;56777;55.930;37.524;2024-02-26T10:13:26;6.22;;;2.10;;
69565;SDS011;56777;55.930;37.524;2024-02-26T10:15:52;6.72;;;2.20;;
69565;SDS011;56777;55.930;37.524;2024-02-26T10:18:18;7.80;;;2.00;;
69565;SDS011;56777;55.930;37.524;2024-02-26T10:21:03;5.90;;;2.00;;
69565;SDS011;56777;55.930;37.524;2024-02-26T10:23:28;9.30;;;2.83;;
69565;SDS011;56777;55.930;37.524;2024-02-26T10:25:54;5.43;;;2.15;;
69565;SDS011;56777;55.930;37.524;2024-02-26T10:28:20;8.98;;;2.10;;
69565;SDS011;56777;55.930;37.524;2024-02-26T10:30:47;5.32;;;2.08;;
69565;SDS011;56777;55.930;37.524;2024-02-26T10:33:13;7.68;;;1.90;;
69565;SDS011;56777;55.930;37.524;2024-02-26T10:35:39;4.25;;;1.73;;
69565;SDS011;56777;55.930;37.524;2024-02-26T10:38:08;7.70;;;2.03;;
69565;SDS011;56777;55.930;37.524;2024-02-26T10:40:34;12.48;;;2.40;;
69565;SDS011;56777;55.930;37.524;2024-02-26T10:42:59;7.28;;;1.95;;
69565;SDS011;56777;55.930;37.524;2024-02-26T10:45:26;5.60;;;1.63;;
69565;SDS011;56777;55.930;37.524;2024-02-26T10:47:51;10.82;;;2.65;;
69565;SDS011;56777;55.930;37.524;2024-02-26T10:50:17;6.88;;;2.30;;
69565;SDS011;56777;55.930;37.524;2024-02-26T10:52:45;5.68;;;1.90;;
69565;SDS011;56777;55.930;37.524;2024-02-26T10:55:15;9.57;;;2.17;;
69565;SDS011;56777;55.930;37.524;2024-02-26T10:57:45;7.45;;;2.25;;
69565;SDS011;56777;55.930;37.524;2024-02-26T11:00:14;8.05;;;2.22;;
69565;SDS011;56777;55.930;37.524;2024-02-26T11:02:40;10.48;;;2.28;;
69565;SDS011;56777;55.930;37.524;2024-02-26T11:05:07;5.30;;;2.10;;
69565;SDS011;56777;55.930;37.524;2024-02-26T11:07:34;10.13;;;2.67;;
69565;SDS011;56777;55.930;37.524;2024-02-26T11:10:02;6.63;;;1.92;;
69565;SDS011;56777;55.930;37.524;2024-02-26T11:12:29;7.35;;;2.22;;
69565;SDS011;56777;55.930;37.524;2024-02-26T11:14:56;5.90;;;2.20;;
69565;SDS011;56777;55.930;37.524;2024-02-26T11:17:24;7.85;;;2.42;;
69565;SDS011;56777;55.930;37.524;2024-02-26T11:19:54;6.22;;;2.50;;
69565;SDS011;56777;55.930;37.524;2024-02-26T11:22:21;7.70;;;2.08;;
69565;SDS011;56777;55.930;37.524;2024-02-26T11:24:51;7.53;;;1.95;;
69565;SDS011;56777;55.930;37.524;2024-02-26T11:27:19;8.95;;;2.47;;
69565;SDS011;56777;55.930;37.524;2024-02-26T11:29:50;8.07;;;2.10;;
69565;SDS011;56777;55.930;37.524;2024-02-26T11:32:18;7.05;;;1.92;;
69565;SDS011;56777;55.930;37.524;2024-02-26T11:34:43;4.70;;;2.00;;
69565;SDS011;56777;55.930;37.524;2024-02-26T11:37:10;7.13;;;1.95;;
69565;SDS011;56777;55.930;37.524;2024-02-26T11:39:40;8.00;;;2.50;;
69565;SDS011;56777;55.930;37.524;2024-02-26T11:42:07;6.88;;;1.90;;
69565;SDS011;56777;55.930;37.524;2024-02-26T11:44:33;5.32;;;2.38;;
69565;SDS011;56777;55.930;37.524;2024-02-26T11:47:00;10.77;;;2.72;;
69565;SDS011;56777;55.930;37.524;2024-02-26T11:52:00;5.75;;;2.15;;
69565;SDS011;56777;55.930;37.524;2024-02-26T11:59:54;6.75;;;2.15;;
69565;SDS011;56777;55.930;37.524;2024-02-26T12:02:47;5.60;;;1.75;;
69565;SDS011;56777;55.930;37.524;2024-02-26T12:05:23;8.00;;;1.98;;
69565;SDS011;56777;55.930;37.524;2024-02-26T12:07:55;5.65;;;2.17;;
69565;SDS011;56777;55.930;37.524;2024-02-26T12:10:30;5.05;;;1.98;;
69565;SDS011;56777;55.930;37.524;2024-02-26T12:13:13;6.93;;;1.90;;
69565;SDS011;56777;55.930;37.524;2024-02-26T12:15:54;6.60;;;2.17;;
69565;SDS011;56777;55.930;37.524;2024-02-26T12:18:22;8.25;;;2.15;;
69565;SDS011;56777;55.930;37.524;2024-02-26T12:20:57;6.32;;;1.80;;
69565;SDS011;56777;55.930;37.524;2024-02-26T12:23:27;6.30;;;2.00;;
69565;SDS011;56777;55.930;37.524;2024-02-26T12:25:53;6.43;;;1.98;;
69565;SDS011;56777;55.930;37.524;2024-02-26T12:28:23;4.85;;;1.75;;
69565;SDS011;56777;55.930;37.524;2024-02-26T12:30:53;5.15;;;1.90;;
69565;SDS011;56777;55.930;37.524;2024-02-26T12:33:19;8.18;;;2.17;;
69565;SDS011;56777;55.930;37.524;2024-02-26T12:35:45;4.53;;;2.35;;
69565;SDS011;56777;55.930;37.524;2024-02-26T12:38:14;6.78;;;2.00;;
69565;SDS011;56777;55.930;37.524;2024-02-26T12:40:40;5.63;;;1.63;;
69565;SDS011;56777;55.930;37.524;2024-02-26T12:43:06;7.47;;;1.50;;
69565;SDS011;56777;55.930;37.524;2024-02-26T12:45:39;5.18;;;1.70;;
69565;SDS011;56777;55.930;37.524;2024-02-26T12:48:06;10.55;;;2.03;;
69565;SDS011;56777;55.930;37.524;2024-02-26T12:50:32;4.80;;;2.03;;
69565;SDS011;56777;55.930;37.524;2024-02-26T12:52:58;10.30;;;2.33;;
69565;SDS011;56777;55.930;37.524;2024-02-26T12:55:24;8.13;;;2.63;;
69565;SDS011;56777;55.930;37.524;2024-02-26T12:57:51;5.03;;;1.50;;
69565;SDS011;56777;55.930;37.524;2024-02-26T13:00:22;8.18;;;2.17;;
69565;SDS011;56777;55.930;37.524;2024-02-26T13:02:52;7.82;;;1.90;;
69565;SDS011;56777;55.930;37.524;2024-02-26T13:05:20;9.00;;;1.95;;
69565;SDS011;56777;55.930;37.524;2024-02-26T13:07:47;7.47;;;1.42;;
69565;SDS011;56777;55.930;37.524;2024-02-26T13:10:13;4.47;;;1.63;;
69565;SDS011;56777;55.930;37.524;2024-02-26T13:12:43;6.53;;;1.67;;
69565;SDS011;56777;55.930;37.524;2024-02-26T13:15:13;10.85;;;2.00;;
69565;SDS011;56777;55.930;37.524;2024-02-26T13:17:40;4.15;;;1.63;;
69565;SDS011;56777;55.930;37.524;2024-02-26T13:20:05;10.13;;;2.20;;
69565;SDS011;56777;55.930;37.524;2024-02-26T13:22:34;10.05;;;2.00;;
69565;SDS011;56777;55.930;37.524;2024-02-26T13:25:00;7.20;;;1.95;;
69565;SDS011;56777;55.930;37.524;2024-02-26T13:27:28;11.35;;;2.40;;
69565;SDS011;56777;55.930;37.524;2024-02-26T13:30:12;5.35;;;2.00;;
69565;SDS011;56777;55.930;37.524;2024-02-26T13:32:38;7.43;;;1.95;;
69565;SDS011;56777;55.930;37.524;2024-02-26T13:35:08;5.70;;;1.90;;
69565;SDS011;56777;55.930;37.524;2024-02-26T13:37:36;7.10;;;1.92;;
69565;SDS011;56777;55.930;37.524;2024-02-26T13:40:09;5.25;;;1.90;;
69565;SDS011;56777;55.930;37.524;2024-02-26T13:42:36;11.73;;;2.17;;
69565;SDS011;56777;55.930;37.524;2024-02-26T13:45:05;9.55;;;1.92;;
69565;SDS011;56777;55.930;37.524;2024-02-26T13:47:34;9.80;;;2.22;;
69565;SDS011;56777;55.930;37.524;2024-02-26T13:50:00;6.80;;;1.85;;
69565;SDS011;56777;55.930;37.524;2024-02-26T13:52:26;7.10;;;1.95;;
69565;SDS011;56777;55.930;37.524;2024-02-26T13:54:52;6.13;;;1.80;;
69565;SDS011;56777;55.930;37.524;2024-02-26T13:57:18;10.88;;;2.38;;
69565;SDS011;56777;55.930;37.524;2024-02-26T13:59:44;8.60;;;2.10;;
69565;SDS011;56777;55.930;37.524;2024-02-26T14:02:10;7.45;;;2.05;;
69565;SDS011;56777;55.930;37.524;2024-02-26T14:04:37;5.53;;;1.90;;
69565;SDS011;56777;55.930;37.524;2024-02-26T14:07:03;4.97;;;1.70;;
69565;SDS011;56777;55.930;37.524;2024-02-26T14:09:29;8.23;;;2.40;;
69565;SDS011;56777;55.930;37.524;2024-02-26T14:11:55;4.80;;;1.70;;
69565;SDS011;56777;55.930;37.524;2024-02-26T14:14:20;5.88;;;2.05;;
69565;SDS011;56777;55.930;37.524;2024-02-26T14:16:46;5.50;;;1.98;;
69565;SDS011;56777;55.930;37.524;2024-02-26T14:19:11;5.60;;;2.25;;
69565;SDS011;56777;55.930;37.524;2024-02-26T14:21:37;7.20;;;2.28;;
69565;SDS011;56777;55.930;37.524;2024-02-26T14:24:03;7.45;;;2.50;;
69565;SDS011;56777;55.930;37.524;2024-02-26T14:26:29;9.23;;;1.95;;
69565;SDS011;56777;55.930;37.524;2024-02-26T14:28:55;6.78;;;2.03;;
69565;SDS011;56777;55.930;37.524;2024-02-26T14:31:21;6.20;;;2.25;;
69565;SDS011;56777;55.930;37.524;2024-02-26T14:33:47;5.75;;;2.05;;
69565;SDS011;56777;55.930;37.524;2024-02-26T14:36:13;8.98;;;2.13;;
69565;SDS011;56777;55.930;37.524;2024-02-26T14:38:39;5.78;;;2.63;;